Time;durP1;ratioP1;P1;durP2;ratioP2;P2;SDS_P1;SDS_P2;PMS_P1;PMS_P2;Temp;Humidity;BMP_temperature;BMP_pressure;BME280_temperature;BME280_humidity;BME280_pressure;Samples;Min_cycle;Max_cycle;Signal;HPM_P1;HPM_P2
2022/11/04 00:02:02;;;;;;;12.88;11.57;;;;;;;8.90;100.00;99839.04;1750776;81;21037;-76
2022/11/04 00:04:28;;;;;;;14.70;11.73;;;;;;;8.88;100.00;99833.91;1750855;81;20986;-80
2022/11/04 00:06:55;;;;;;;13.78;12.25;;;;;;;8.85;100.00;99841.09;1752400;80;20916;-73
2022/11/04 00:09:27;;;;;;;14.50;12.47;;;;;;;8.84;100.00;99833.27;1762785;81;21003;-71
2022/11/04 00:14:41;;;;;;;18.52;15.88;;;;;;;8.84;100.00;99835.42;1734455;82;20958;-73
2022/11/04 00:17:25;;;;;;;17.80;16.02;;;;;;;8.86;100.00;99840.56;1749363;81;20928;-73
2022/11/04 00:33:54;;;;;;;19.90;18.05;;;;;;;8.81;100.00;99819.00;1751312;81;20991;-73
2022/11/04 00:36:22;;;;;;;21.55;18.75;;;;;;;8.85;100.00;99810.77;1766367;80;21042;-73
2022/11/04 00:38:48;;;;;;;18.05;16.17;;;;;;;8.84;100.00;99806.45;1758006;81;21827;-72
2022/11/04 00:41:27;;;;;;;21.02;18.23;;;;;;;8.81;100.00;99812.30;1753648;81;21495;-73
2022/11/04 00:43:59;;;;;;;21.23;19.12;;;;;;;8.77;100.00;99809.80;1764722;81;21050;-73
2022/11/04 00:46:30;;;;;;;21.27;18.95;;;;;;;8.78;100.00;99810.09;1751115;80;22056;-73
2022/11/04 00:48:57;;;;;;;17.15;15.45;;;;;;;8.78;100.00;99808.75;1756989;81;21064;-73
2022/11/04 00:51:24;;;;;;;17.57;15.72;;;;;;;8.77;100.00;99806.59;1760622;81;21114;-71
2022/11/04 00:53:50;;;;;;;16.17;13.78;;;;;;;8.80;100.00;99812.00;1736994;81;20967;-71
2022/11/04 00:56:18;;;;;;;13.48;12.13;;;;;;;8.82;100.00;99808.56;1760060;80;21586;-73
2022/11/04 00:58:44;;;;;;;19.00;16.55;;;;;;;8.83;100.00;99808.31;1732982;80;21523;-73
2022/11/04 01:01:17;;;;;;;21.35;18.35;;;;;;;8.80;100.00;99806.63;1731062;82;21051;-72
2022/11/04 01:03:45;;;;;;;26.35;22.62;;;;;;;8.77;100.00;99801.23;1735948;81;21042;-74
2022/11/04 01:06:13;;;;;;;22.27;18.45;;;;;;;8.75;100.00;99808.68;1752959;81;21535;-72
2022/11/04 01:08:39;;;;;;;26.68;21.87;;;;;;;8.75;100.00;99804.66;1714769;82;21093;-75
2022/11/04 01:11:08;;;;;;;23.55;21.05;;;;;;;8.71;100.00;99794.94;1766478;81;21046;-75
2022/11/04 01:13:35;;;;;;;26.57;21.15;;;;;;;8.72;100.00;99801.11;1758076;81;21053;-72
2022/11/04 01:16:04;;;;;;;29.42;25.08;;;;;;;8.73;100.00;99806.75;1740629;81;21110;-78
2022/11/04 01:18:31;;;;;;;30.57;26.33;;;;;;;8.69;100.00;99797.02;1771253;81;21061;-79
2022/11/04 01:21:01;;;;;;;22.85;19.85;;;;;;;8.71;100.00;99794.11;1744085;81;21435;-77
2022/11/04 01:23:28;;;;;;;18.60;15.25;;;;;;;8.81;100.00;99795.68;1763616;81;21057;-78
2022/11/04 01:25:54;;;;;;;17.65;13.30;;;;;;;8.92;100.00;99790.80;1747645;79;21098;-87
2022/11/04 01:28:21;;;;;;;16.85;15.05;;;;;;;9.01;100.00;99792.61;1740858;81;21196;-79
2022/11/04 01:30:47;;;;;;;18.92;14.75;;;;;;;9.10;100.00;99791.19;1740511;81;21009;-85
2022/11/04 01:33:14;;;;;;;22.20;15.50;;;;;;;9.22;100.00;99794.64;1762961;81;20931;-77
2022/11/04 01:35:41;;;;;;;18.12;14.70;;;;;;;9.31;100.00;99792.38;1757291;80;21523;-87
2022/11/04 01:38:08;;;;;;;15.28;13.68;;;;;;;9.37;100.00;99791.44;1735051;82;22197;-84
2022/11/04 01:40:39;;;;;;;19.55;14.13;;;;;;;9.43;100.00;99787.80;1734195;82;21212;-88
2022/11/04 01:43:16;;;;;;;23.85;15.40;;;;;;;9.48;100.00;99793.27;1728537;82;21083;-77
2022/11/04 01:45:54;;;;;;;20.32;15.70;;;;;;;9.52;100.00;99793.07;1718972;81;21606;-83
2022/11/04 01:48:25;;;;;;;15.60;13.00;;;;;;;9.56;100.00;99792.88;1733731;81;21340;-76
2022/11/04 01:50:52;;;;;;;16.57;12.37;;;;;;;9.56;100.00;99795.03;1758416;81;20967;-74
2022/11/04 01:53:23;;;;;;;18.27;13.70;;;;;;;9.58;100.00;99799.64;1759478;81;21061;-77
2022/11/04 01:55:57;;;;;;;15.20;13.58;;;;;;;9.59;100.00;99795.87;1760558;80;22140;-81
2022/11/04 01:58:29;;;;;;;19.05;13.90;;;;;;;9.60;100.00;99796.70;1761787;80;21089;-77
2022/11/04 02:00:55;;;;;;;15.20;12.53;;;;;;;9.61;100.00;99799.68;1763427;80;21138;-78
2022/11/04 02:03:34;;;;;;;14.33;10.72;;;;;;;9.59;100.00;99797.78;1724009;81;21063;-78
2022/11/04 02:06:03;;;;;;;15.65;11.38;;;;;;;9.56;100.00;99795.03;1713501;81;21253;-77
2022/11/04 02:08:29;;;;;;;13.50;10.65;;;;;;;9.52;100.00;99799.26;1756987;80;21453;-77
2022/11/04 02:10:59;;;;;;;13.68;11.38;;;;;;;9.51;100.00;99798.14;1764863;81;20946;-73
2022/11/04 02:13:27;;;;;;;11.93;9.93;;;;;;;9.48;100.00;99792.75;1740497;81;21542;-73
2022/11/04 02:16:21;;;;;;;18.05;13.22;;;;;;;9.49;100.00;99793.04;1763016;80;21151;-73
2022/11/04 02:19:11;;;;;;;19.17;11.97;;;;;;;9.51;100.00;99796.80;1723261;81;22977;-74
2022/11/04 02:21:47;;;;;;;19.73;12.47;;;;;;;9.54;100.00;99791.77;1733520;81;21725;-74
2022/11/04 02:24:43;;;;;;;14.18;10.78;;;;;;;9.59;100.00;99793.20;1711657;80;20951;-72
2022/11/04 02:27:27;;;;;;;15.45;10.88;;;;;;;9.62;100.00;99793.27;1718815;82;21065;-76
2022/11/04 02:30:17;;;;;;;11.85;10.32;;;;;;;9.60;100.00;99790.80;1734278;82;21029;-78
2022/11/04 02:33:03;;;;;;;15.30;11.40;;;;;;;9.58;100.00;99794.80;1742124;81;21244;-77
2022/11/04 02:36:02;;;;;;;21.73;11.78;;;;;;;9.54;100.00;99791.77;1762454;80;21068;-76
2022/11/04 02:38:51;;;;;;;14.68;10.15;;;;;;;9.54;100.00;99790.42;1735436;81;21098;-78
2022/11/04 02:41:35;;;;;;;13.32;9.85;;;;;;;9.58;100.00;99784.88;1735301;81;21022;-77
2022/11/04 02:44:32;;;;;;;13.35;9.68;;;;;;;9.63;100.00;99786.84;1757711;81;21507;-80
2022/11/04 02:47:08;;;;;;;14.15;8.95;;;;;;;9.67;100.00;99786.64;1757864;81;21750;-74
2022/11/04 02:49:44;;;;;;;12.33;9.63;;;;;;;9.68;100.00;99783.43;1759687;81;21078;-78
2022/11/04 02:52:15;;;;;;;14.85;8.88;;;;;;;9.62;100.00;99784.68;1734838;81;21097;-76
2022/11/04 02:54:47;;;;;;;12.78;9.63;;;;;;;9.57;100.00;99781.08;1762361;80;21144;-77
2022/11/04 02:57:18;;;;;;;20.08;9.43;;;;;;;9.55;100.00;99782.66;1761355;80;21098;-79
2022/11/04 02:59:48;;;;;;;15.23;9.25;;;;;;;9.57;100.00;99785.92;1764303;81;21177;-78
2022/11/04 03:02:21;;;;;;;18.23;9.93;;;;;;;9.60;100.00;99784.62;1752234;81;20974;-83
2022/11/04 03:04:50;;;;;;;14.75;9.40;;;;;;;9.60;100.00;99772.53;1761875;80;21048;-84
2022/11/04 03:07:21;;;;;;;13.78;9.60;;;;;;;9.61;100.00;99775.52;1749997;81;20986;-72
2022/11/04 03:09:51;;;;;;;10.98;9.85;;;;;;;9.64;100.00;99769.12;1754257;81;21113;-71
2022/11/04 03:12:19;;;;;;;11.65;9.00;;;;;;;9.67;100.00;99768.37;1763610;81;21062;-76
2022/11/04 03:14:53;;;;;;;15.95;9.23;;;;;;;9.69;100.00;99768.95;1738125;81;21021;-75
2022/11/04 03:17:28;;;;;;;12.47;9.48;;;;;;;9.66;100.00;99771.58;1748735;81;20926;-76
2022/11/04 03:20:00;;;;;;;12.40;7.90;;;;;;;9.66;100.00;99775.61;1732092;81;21041;-76
2022/11/04 03:22:29;;;;;;;9.97;8.30;;;;;;;9.69;100.00;99783.16;1743266;81;21390;-77
2022/11/04 03:24:56;;;;;;;11.78;8.53;;;;;;;9.69;100.00;99781.03;1752777;80;22048;-78
2022/11/04 03:27:42;;;;;;;10.58;7.28;;;;;;;9.68;100.00;99794.17;1762667;81;21569;-78
2022/11/04 03:30:13;;;;;;;11.30;8.35;;;;;;;9.66;100.00;99787.69;1772645;80;21038;-77
2022/11/04 03:33:13;;;;;;;11.97;8.25;;;;;;;9.66;100.00;99786.34;1758371;81;21045;-75
2022/11/04 03:35:40;;;;;;;10.03;7.58;;;;;;;9.63;100.00;99780.13;1771236;79;21628;-76
2022/11/04 03:38:07;;;;;;;12.63;8.45;;;;;;;9.57;100.00;99784.59;1748100;78;21050;-76
2022/11/04 03:40:35;;;;;;;10.18;7.80;;;;;;;9.55;100.00;99785.34;1778778;78;21632;-76
2022/11/04 03:43:16;;;;;;;11.80;7.55;;;;;;;9.53;100.00;99787.47;1757284;81;21011;-75
2022/11/04 03:45:42;;;;;;;16.10;10.43;;;;;;;9.51;100.00;99786.06;1768979;79;20999;-77
2022/11/04 03:48:09;;;;;;;10.13;7.67;;;;;;;9.52;100.00;99785.84;1748004;81;21045;-77
2022/11/04 03:50:42;;;;;;;11.08;8.93;;;;;;;9.55;100.00;99787.20;1743949;81;21025;-77
2022/11/04 03:53:10;;;;;;;9.65;7.67;;;;;;;9.58;100.00;99789.43;1771200;81;21038;-79
2022/11/04 03:55:46;;;;;;;9.95;8.75;;;;;;;9.60;100.00;99789.98;1767208;79;21142;-77
2022/11/04 03:58:42;;;;;;;10.45;7.90;;;;;;;9.58;100.00;99798.30;1754525;81;21014;-77
2022/11/04 04:01:44;;;;;;;11.78;8.45;;;;;;;9.58;100.00;99793.45;1717131;81;20989;-78
2022/11/04 04:04:28;;;;;;;12.05;7.58;;;;;;;9.53;100.00;99787.47;1758386;79;21870;-75
2022/11/04 04:07:13;;;;;;;;;;;;;;;9.51;100.00;99783.38;1748011;81;21546;-75
2022/11/04 04:10:02;;;;;;;10.68;7.80;;;;;;;9.51;100.00;99785.54;1763205;81;20254;-74
2022/11/04 04:12:38;;;;;;;9.33;8.33;;;;;;;9.53;100.00;99785.31;1758242;81;21019;-76
2022/11/04 04:15:24;;;;;;;15.18;9.03;;;;;;;9.53;100.00;99781.28;1743146;81;21023;-76
2022/11/04 04:17:57;;;;;;;12.95;7.83;;;;;;;9.54;100.00;99793.10;1771029;81;21097;-75
2022/11/04 04:20:27;;;;;;;10.70;8.75;;;;;;;9.52;100.00;99789.86;1759353;81;21033;-75
2022/11/04 04:23:02;;;;;;;11.78;8.78;;;;;;;9.50;100.00;99791.14;1743175;81;21792;-77
2022/11/04 04:28:16;;;;;;;11.38;10.28;;;;;;;9.49;100.00;99782.30;1754148;80;21113;-76
2022/11/04 04:30:42;;;;;;;12.30;8.33;;;;;;;9.51;100.00;99775.33;1771663;81;21308;-75
2022/11/04 04:33:13;;;;;;;11.03;8.48;;;;;;;9.52;100.00;99787.17;1772061;81;21029;-79
2022/11/04 04:35:44;;;;;;;16.67;9.20;;;;;;;9.52;100.00;99791.20;1766904;79;21106;-77
2022/11/04 06:50:36;;;;;;;23.22;17.45;;;;;;;8.51;100.00;99856.13;1773459;79;32155;-79
2022/11/04 06:53:05;;;;;;;18.50;16.17;;;;;;;8.55;100.00;99858.63;1781176;80;20963;-78
2022/11/04 06:55:34;;;;;;;22.45;15.88;;;;;;;8.64;100.00;99859.09;1763881;81;21900;-79
2022/11/04 06:58:05;;;;;;;27.85;15.98;;;;;;;8.70;100.00;99856.31;1763393;81;21014;-81
2022/11/04 07:00:31;;;;;;;23.95;14.73;;;;;;;8.78;100.00;99851.66;1764777;81;20916;-81
2022/11/04 07:03:00;;;;;;;23.05;16.27;;;;;;;8.86;100.00;99856.66;1740077;81;20978;-80
2022/11/04 07:05:28;;;;;;;21.50;15.88;;;;;;;8.94;100.00;99859.80;1740962;81;21556;-78
2022/11/04 07:07:55;;;;;;;17.37;13.22;;;;;;;9.03;100.00;99858.90;1764637;81;21169;-79
2022/11/04 07:10:22;;;;;;;21.40;13.38;;;;;;;9.08;100.00;99857.67;1764321;81;20982;-79
2022/11/04 07:12:48;;;;;;;22.93;14.38;;;;;;;9.10;100.00;99855.05;1744614;81;20958;-79
2022/11/04 07:15:15;;;;;;;18.27;14.70;;;;;;;9.13;100.00;99850.55;1764655;81;20973;-78
2022/11/04 07:17:43;;;;;;;23.45;15.32;;;;;;;9.15;100.00;99847.64;1764696;81;20998;-78
2022/11/04 07:20:12;;;;;;;18.60;14.63;;;;;;;9.22;100.00;99844.80;1740899;81;21697;-78
2022/11/04 07:22:39;;;;;;;18.67;15.20;;;;;;;9.31;100.00;99845.53;1753047;81;20999;-80
2022/11/04 07:25:06;;;;;;;25.30;15.95;;;;;;;9.39;100.00;99840.34;1711320;82;21032;-79
2022/11/04 07:27:36;;;;;;;16.62;12.95;;;;;;;9.44;100.00;99843.13;1758067;81;20970;-85
2022/11/04 07:30:07;;;;;;;21.35;13.28;;;;;;;9.45;100.00;99846.08;1764595;81;21111;-80
2022/11/04 07:32:37;;;;;;;24.63;16.02;;;;;;;9.45;100.00;99844.21;1709440;82;21292;-80
2022/11/04 07:35:05;;;;;;;22.32;14.15;;;;;;;9.44;100.00;99845.81;1752835;81;21052;-82
2022/11/04 07:37:32;;;;;;;21.33;15.70;;;;;;;9.47;100.00;99843.45;1762145;81;20943;-88
2022/11/04 07:40:01;;;;;;;25.45;15.58;;;;;;;9.51;100.00;99845.95;1758357;81;20984;-81
2022/11/04 07:42:27;;;;;;;22.48;17.50;;;;;;;9.59;100.00;99844.22;1734240;82;20962;-79
2022/11/04 07:44:54;;;;;;;25.70;16.65;;;;;;;9.64;100.00;99844.31;1746360;81;21314;-82
2022/11/04 07:47:21;;;;;;;28.73;17.57;;;;;;;9.66;100.00;99854.83;1764245;80;21563;-82
2022/11/04 07:49:50;;;;;;;23.15;15.30;;;;;;;9.66;100.00;99849.45;1761446;80;21610;-83
2022/11/04 07:52:16;;;;;;;27.35;16.80;;;;;;;9.67;100.00;99852.95;1756951;81;21549;-88
2022/11/04 07:54:44;;;;;;;25.85;15.98;;;;;;;9.64;100.00;99848.87;1759015;81;20947;-78
2022/11/04 07:57:11;;;;;;;23.52;14.85;;;;;;;9.63;100.00;99841.89;1758986;81;21083;-80
2022/11/04 07:59:39;;;;;;;23.55;15.78;;;;;;;9.64;100.00;99846.18;1758639;81;21065;-77
2022/11/04 08:02:09;;;;;;;24.47;14.13;;;;;;;9.66;100.00;99848.11;1760531;81;21520;-80
2022/11/04 08:04:37;;;;;;;20.77;12.45;;;;;;;9.72;100.00;99848.50;1759304;81;21023;-78
2022/11/04 08:07:09;;;;;;;19.90;13.75;;;;;;;9.73;100.00;99843.42;1758878;80;21019;-80
2022/11/04 08:09:36;;;;;;;19.10;14.63;;;;;;;9.72;100.00;99848.50;1738445;81;21181;-76
2022/11/04 08:12:05;;;;;;;18.82;15.15;;;;;;;9.72;100.00;99851.19;1757242;81;21027;-74
2022/11/04 08:14:32;;;;;;;20.90;15.75;;;;;;;9.71;100.00;99850.08;1737337;81;21061;-77
2022/11/04 08:16:59;;;;;;;22.75;13.98;;;;;;;9.72;100.00;99851.19;1756612;81;20967;-75
2022/11/04 08:19:26;;;;;;;18.80;12.70;;;;;;;9.75;100.00;99845.33;1756943;81;21034;-75
2022/11/04 08:21:53;;;;;;;23.18;15.60;;;;;;;9.79;100.00;99846.47;1756942;81;21633;-76
2022/11/04 08:24:20;;;;;;;22.73;14.28;;;;;;;9.83;100.00;99846.83;1758368;81;21010;-75
2022/11/04 08:26:48;;;;;;;22.02;16.23;;;;;;;9.88;100.00;99849.05;1735382;81;21061;-77
2022/11/04 08:29:14;;;;;;;19.80;14.83;;;;;;;9.94;100.00;99848.63;1757681;80;21030;-74
2022/11/04 08:31:42;;;;;;;18.57;14.80;;;;;;;9.96;100.00;99851.89;1758111;81;21031;-76
2022/11/04 08:34:08;;;;;;;23.32;15.03;;;;;;;10.00;100.00;99855.20;1756795;81;21242;-74
2022/11/04 08:36:37;;;;;;;24.23;16.12;;;;;;;10.02;100.00;99858.99;1758774;80;21005;-75
2022/11/04 08:39:04;;;;;;;19.25;15.18;;;;;;;10.00;100.00;99856.54;1753995;81;21070;-74
2022/11/04 08:41:31;;;;;;;22.87;13.93;;;;;;;10.03;100.00;99851.20;1751132;80;21451;-75
2022/11/04 08:44:03;;;;;;;18.65;11.97;;;;;;;10.07;100.00;99852.37;1756897;81;21085;-78
2022/11/04 08:46:37;;;;;;;18.25;12.68;;;;;;;10.12;100.00;99853.77;1781440;80;21124;-76
2022/11/04 08:49:03;;;;;;;21.15;15.05;;;;;;;10.16;100.00;99848.25;1755599;80;20895;-76
2022/11/04 08:51:32;;;;;;;16.75;13.43;;;;;;;10.21;100.00;99848.87;1779758;80;20932;-75
2022/11/04 08:53:59;;;;;;;17.20;14.07;;;;;;;10.29;100.00;99853.83;1760920;81;21026;-77
2022/11/04 08:56:29;;;;;;;16.25;13.08;;;;;;;10.30;100.00;99858.16;1761057;81;21103;-79
2022/11/04 08:59:00;;;;;;;19.67;12.95;;;;;;;10.26;100.00;99857.02;1761978;81;21633;-77
2022/11/04 09:01:28;;;;;;;21.05;11.65;;;;;;;10.26;100.00;99854.33;1763584;81;21014;-78
2022/11/04 09:03:54;;;;;;;15.83;13.40;;;;;;;10.27;100.00;99850.55;1761055;81;21038;-76
2022/11/04 09:06:24;;;;;;;15.83;13.40;;;;;;;10.31;100.00;99848.48;1763592;81;21074;-77
2022/11/04 09:08:55;;;;;;;17.67;12.40;;;;;;;10.39;100.00;99852.12;1740274;81;21319;-75
2022/11/04 09:11:21;;;;;;;14.80;13.20;;;;;;;10.45;100.00;99851.13;1758850;81;21214;-77
2022/11/04 09:13:48;;;;;;;15.98;11.85;;;;;;;10.47;100.00;99848.20;1761792;81;21021;-76
2022/11/04 09:16:15;;;;;;;14.20;12.43;;;;;;;10.45;100.00;99849.78;1761718;81;21052;-76
2022/11/04 09:18:45;;;;;;;15.72;11.97;;;;;;;10.44;100.00;99854.08;1759998;81;21037;-75
2022/11/04 09:21:15;;;;;;;16.15;12.07;;;;;;;10.43;100.00;99844.38;1763597;81;21149;-77
2022/11/04 09:23:41;;;;;;;13.50;11.97;;;;;;;10.48;100.00;99843.11;1771094;80;21299;-74
2022/11/04 09:26:15;;;;;;;21.50;12.33;;;;;;;10.52;100.00;99842.09;1763819;81;21028;-80
2022/11/04 09:28:41;;;;;;;18.52;13.22;;;;;;;10.52;100.00;99840.74;1740711;81;21599;-79
2022/11/04 09:31:15;;;;;;;13.00;10.65;;;;;;;10.55;100.00;99838.37;1764334;81;21051;-80
2022/11/04 09:33:43;;;;;;;19.02;12.78;;;;;;;10.58;100.00;99841.11;1761253;81;22084;-78
2022/11/04 09:36:10;;;;;;;15.55;12.60;;;;;;;10.50;100.00;99843.14;1765780;80;21527;-80
2022/11/04 09:38:40;;;;;;;18.10;13.43;;;;;;;10.50;100.00;99840.45;1759284;81;20996;-82
2022/11/04 09:41:46;;;;;;;18.15;13.15;;;;;;;10.55;100.00;99837.58;1739463;81;20995;-83
2022/11/04 09:44:18;;;;;;;21.52;13.20;;;;;;;10.60;100.00;99833.63;1763446;81;21064;-82
2022/11/04 09:46:47;;;;;;;13.70;11.13;;;;;;;10.61;100.00;99836.58;1762805;81;21612;-86
2022/11/04 09:49:16;;;;;;;18.70;11.90;;;;;;;10.60;100.00;99841.13;1733725;81;21061;-83
2022/11/04 09:51:45;;;;;;;15.32;9.50;;;;;;;10.58;100.00;99839.23;1723867;81;21066;-84
2022/11/04 09:54:22;;;;;;;18.15;9.23;;;;;;;10.54;100.00;99844.83;1698495;83;21057;-82
2022/11/04 09:56:52;;;;;;;11.43;10.23;;;;;;;10.54;100.00;99842.67;1728310;82;21051;-83
2022/11/04 09:59:29;;;;;;;11.15;8.45;;;;;;;10.55;100.00;99834.33;1746502;81;21012;-83
2022/11/04 10:02:23;;;;;;;10.98;8.43;;;;;;;10.56;100.00;99835.97;1726263;81;21186;-84
2022/11/04 10:05:11;;;;;;;;;;;;;;;10.60;100.00;99838.45;1741801;82;20920;-84
2022/11/04 10:08:16;;;;;;;9.45;8.23;;;;;;;10.61;100.00;99838.73;1738485;82;20464;-81
2022/11/04 10:11:07;;;;;;;10.00;9.00;;;;;;;10.54;100.00;99836.77;1739613;82;21078;-85
2022/11/04 10:13:51;;;;;;;10.18;8.53;;;;;;;10.58;100.00;99838.42;1746686;81;21070;-87
2022/11/04 10:16:42;;;;;;;15.32;10.93;;;;;;;10.62;100.00;99824.77;1743953;81;23179;-82
2022/11/04 10:19:39;;;;;;;9.75;8.75;;;;;;;10.64;100.00;99826.69;1737895;82;20967;-77
2022/11/04 10:22:23;;;;;;;8.58;7.58;;;;;;;10.66;99.76;99828.58;1744003;80;21563;-76
2022/11/04 10:25:12;;;;;;;8.38;7.58;;;;;;;10.70;99.70;99827.02;1723589;82;21075;-82
2022/11/04 10:27:43;;;;;;;9.08;8.15;;;;;;;10.73;99.01;99835.44;1744423;82;21546;-82
2022/11/04 10:30:22;;;;;;;9.73;8.70;;;;;;;10.71;98.71;99830.00;1745140;81;21271;-73
2022/11/04 10:33:12;;;;;;;12.18;9.65;;;;;;;10.76;98.87;99826.04;1743128;82;22129;-74
2022/11/04 10:35:58;;;;;;;10.18;8.93;;;;;;;10.82;98.64;99831.78;1743766;82;20964;-75
2022/11/04 14:42:55;;;;;;;17.40;14.33;;;;;;;9.43;100.00;99798.54;1739365;81;22892;-75
2022/11/04 14:45:25;;;;;;;21.10;14.43;;;;;;;9.45;100.00;99799.09;1740433;82;20979;-72
2022/11/04 14:47:57;;;;;;;15.65;12.45;;;;;;;9.50;100.00;99803.22;1741142;82;20983;-75
2022/11/04 14:50:26;;;;;;;17.87;12.98;;;;;;;9.58;100.00;99805.55;1732654;82;21061;-75
2022/11/04 14:52:59;;;;;;;21.07;12.93;;;;;;;9.62;100.00;99795.42;1722872;82;20951;-75
2022/11/04 14:55:28;;;;;;;14.98;13.32;;;;;;;9.72;100.00;99795.31;1739321;82;21069;-74
2022/11/04 14:58:16;;;;;;;18.07;14.15;;;;;;;9.78;100.00;99801.89;1738712;82;21018;-73
2022/11/04 15:00:52;;;;;;;18.82;14.98;;;;;;;9.85;100.00;99792.31;1688353;83;21255;-73
2022/11/04 15:03:25;;;;;;;17.92;15.98;;;;;;;9.86;100.00;99797.45;1711719;83;20971;-72
2022/11/04 15:06:02;;;;;;;;;;;;;;;9.85;100.00;99799.03;1719482;82;21003;-76
2022/11/04 15:08:42;;;;;;;22.80;15.95;;;;;;;9.83;100.00;99798.48;1751469;81;20216;-71
2022/11/04 15:12:49;;;;;;;20.52;14.60;;;;;;;9.87;100.00;99810.36;1748424;80;21023;-70
2022/11/04 15:13:49;;;;;;;16.15;14.20;;;;;;;9.87;100.00;99799.61;1772845;80;21822;-72
2022/11/04 15:16:27;;;;;;;18.52;14.90;;;;;;;9.89;100.00;99806.36;1743943;81;21030;-74
2022/11/04 15:18:57;;;;;;;16.93;15.13;;;;;;;9.90;100.00;99805.31;1744998;81;21010;-75
2022/11/04 15:21:23;;;;;;;17.70;14.33;;;;;;;9.89;100.00;99808.23;1748815;79;21004;-76
2022/11/04 15:23:52;;;;;;;15.75;13.03;;;;;;;9.86;99.73;99806.86;1715464;82;22212;-74
2022/11/04 15:26:25;;;;;;;15.98;14.35;;;;;;;9.81;99.11;99804.61;1730179;81;21070;-76
2022/11/04 15:28:51;;;;;;;16.17;14.47;;;;;;;9.73;98.78;99810.37;1759038;81;20987;-74
2022/11/04 15:31:21;;;;;;;16.57;13.30;;;;;;;9.70;98.90;99803.60;1761448;80;21062;-77
2022/11/04 15:33:53;;;;;;;15.95;13.85;;;;;;;9.71;99.01;99810.61;1777309;80;21029;-78
2022/11/04 15:36:34;;;;;;;13.53;12.25;;;;;;;9.72;98.76;99810.91;1781574;80;21012;-79
2022/11/04 15:39:07;;;;;;;17.98;14.85;;;;;;;9.72;98.56;99810.08;1763827;81;21160;-75
2022/11/04 15:44:28;;;;;;;17.50;13.83;;;;;;;9.71;98.48;99817.84;1723484;83;21055;-75
2022/11/04 15:47:00;;;;;;;19.80;15.35;;;;;;;9.65;98.42;99818.28;1717790;83;20975;-74
2022/11/04 15:49:30;;;;;;;17.32;14.83;;;;;;;9.62;98.57;99815.56;1718869;83;21627;-76
2022/11/04 15:52:09;;;;;;;16.42;14.15;;;;;;;9.62;98.75;99812.06;1717434;82;21202;-76
2022/11/04 15:54:42;;;;;;;18.48;14.63;;;;;;;9.62;98.78;99815.56;1718797;83;21722;-75
2022/11/04 15:57:24;;;;;;;24.47;18.60;;;;;;;9.63;98.78;99819.88;1736638;82;20933;-69
2022/11/04 15:59:55;;;;;;;18.55;16.55;;;;;;;9.65;98.81;99818.28;1738249;82;20948;-68
2022/11/04 16:02:32;;;;;;;19.77;16.90;;;;;;;9.66;98.73;99812.38;1735675;82;21008;-67
2022/11/04 16:05:13;;;;;;;16.57;14.30;;;;;;;9.66;98.62;99819.92;1723164;82;21099;-71
2022/11/04 16:07:50;;;;;;;20.72;14.13;;;;;;;9.61;98.43;99810.42;1744703;81;21077;-67
2022/11/04 16:10:33;;;;;;;16.05;13.10;;;;;;;9.53;98.30;99812.98;1751859;81;21007;-69
2022/11/04 16:13:16;;;;;;;18.00;15.10;;;;;;;9.47;98.42;99809.08;1749354;81;20976;-73
2022/11/04 16:15:49;;;;;;;19.85;13.53;;;;;;;9.43;98.67;99813.30;1749054;81;21525;-67
2022/11/04 16:18:27;;;;;;;17.35;13.85;;;;;;;9.43;98.78;99811.44;1744567;82;21179;-68
2022/11/04 16:20:54;;;;;;;16.52;14.83;;;;;;;9.42;98.71;99816.51;1751578;81;20985;-68
2022/11/04 16:23:23;;;;;;;15.98;13.03;;;;;;;9.39;98.75;99812.16;1729968;81;21050;-66
2022/11/04 16:26:03;;;;;;;18.30;14.00;;;;;;;9.35;98.63;99815.03;1749626;81;20965;-69
2022/11/04 16:28:30;;;;;;;19.25;13.03;;;;;;;9.31;98.66;99818.70;1744407;82;21049;-71
2022/11/04 16:31:03;;;;;;;19.35;13.25;;;;;;;9.27;98.81;99820.23;1744224;82;21116;-69
2022/11/04 16:33:29;;;;;;;17.75;12.15;;;;;;;9.26;98.91;99818.59;1734968;81;21070;-71
2022/11/04 16:35:56;;;;;;;15.58;12.85;;;;;;;9.25;98.97;99821.53;1711865;83;21118;-71
2022/11/04 16:38:22;;;;;;;15.30;11.78;;;;;;;9.22;99.04;99816.10;1729576;82;21060;-74
2022/11/04 16:40:49;;;;;;;15.25;13.58;;;;;;;9.21;99.04;99813.13;1726067;82;21019;-82
2022/11/04 16:43:20;;;;;;;17.85;12.40;;;;;;;9.19;98.96;99816.59;1743623;82;21078;-78
2022/11/04 16:45:49;;;;;;;17.67;13.50;;;;;;;9.13;98.87;99813.51;1742519;80;21051;-80
2022/11/04 16:48:19;;;;;;;19.60;13.15;;;;;;;9.08;98.81;99806.69;1711548;82;20948;-82
2022/11/04 16:50:45;;;;;;;16.02;12.50;;;;;;;9.04;98.98;99805.54;1736086;80;21069;-69
2022/11/04 16:53:12;;;;;;;14.38;12.68;;;;;;;9.03;99.10;99810.09;1743100;82;21100;-69
2022/11/04 16:55:40;;;;;;;15.25;13.53;;;;;;;9.05;99.38;99812.02;1728370;81;21084;-71
2022/11/04 16:58:08;;;;;;;17.87;14.38;;;;;;;9.10;99.44;99809.97;1739393;80;21008;-70
2022/11/04 17:00:36;;;;;;;15.10;13.50;;;;;;;9.12;99.30;99812.69;1731261;82;20944;-75
2022/11/04 17:03:23;;;;;;;17.00;13.40;;;;;;;9.10;98.98;99818.84;1724059;82;21084;-74
2022/11/04 17:05:56;;;;;;;18.00;13.75;;;;;;;9.08;99.02;99816.08;1687906;83;21502;-76
2022/11/04 17:08:23;;;;;;;17.25;13.35;;;;;;;9.04;98.83;99820.30;1723501;83;21215;-74
2022/11/04 17:10:51;;;;;;;15.25;13.60;;;;;;;8.97;98.75;99820.97;1741939;81;21030;-80
2022/11/04 17:13:18;;;;;;;15.30;13.08;;;;;;;8.88;98.82;99823.70;1749115;82;21052;-71
2022/11/04 17:15:46;;;;;;;18.67;13.80;;;;;;;8.81;99.11;99813.63;1728763;82;21050;-76
2022/11/04 17:18:15;;;;;;;16.95;13.22;;;;;;;8.78;99.39;99816.24;1726921;83;21004;-76
2022/11/04 17:20:46;;;;;;;16.67;14.60;;;;;;;8.75;99.59;99816.20;1720426;81;21209;-76
2022/11/04 17:23:13;;;;;;;16.25;12.98;;;;;;;8.75;99.86;99816.20;1743157;82;21013;-69
2022/11/04 17:25:42;;;;;;;23.27;16.48;;;;;;;8.73;99.74;99811.58;1712076;83;20981;-72
2022/11/04 17:28:08;;;;;;;24.27;14.53;;;;;;;8.69;99.75;99810.42;1711939;82;21003;-72
2022/11/04 17:30:35;;;;;;;19.82;13.83;;;;;;;8.66;99.78;99814.93;1720412;83;21040;-73
2022/11/04 17:33:05;;;;;;;18.73;15.13;;;;;;;8.62;99.82;99813.77;1720794;83;21037;-74
2022/11/04 17:35:34;;;;;;;19.98;13.15;;;;;;;8.62;100.00;99816.97;1729913;81;21504;-72
2022/11/04 17:38:00;;;;;;;21.35;13.10;;;;;;;8.61;100.00;99822.86;1719221;83;21007;-73
2022/11/04 17:40:28;;;;;;;16.48;12.73;;;;;;;8.63;100.00;99818.61;1737719;82;20973;-76
2022/11/04 17:45:42;;;;;;;17.05;13.62;;;;;;;8.65;100.00;99820.52;1747619;80;21170;-76
2022/11/04 17:48:12;;;;;;;16.50;12.70;;;;;;;8.66;100.00;99822.16;1736970;80;21049;-72
2022/11/04 17:50:41;;;;;;;15.18;12.47;;;;;;;8.65;99.91;99827.22;1738649;82;21040;-76
2022/11/04 17:53:08;;;;;;;16.25;11.75;;;;;;;8.61;99.88;99822.86;1746539;82;21766;-76
2022/11/04 17:55:39;;;;;;;18.57;12.58;;;;;;;8.57;99.82;99823.56;1741545;82;20968;-75
2022/11/04 17:58:09;;;;;;;21.95;13.30;;;;;;;8.53;99.91;99827.23;1724441;82;21868;-80
2022/11/04 18:00:37;;;;;;;14.98;13.10;;;;;;;8.51;100.00;99825.30;1737822;82;20994;-75
2022/11/04 18:03:05;;;;;;;13.25;11.33;;;;;;;8.50;100.00;99828.20;1739858;82;21064;-78
2022/11/04 18:05:31;;;;;;;19.87;13.80;;;;;;;8.50;100.00;99824.19;1738530;82;20981;-77
2022/11/04 18:08:00;;;;;;;17.90;14.10;;;;;;;8.51;100.00;99823.96;1742349;81;20993;-76
2022/11/04 18:10:27;;;;;;;15.85;11.97;;;;;;;8.51;100.00;99818.60;1738649;80;21282;-74
2022/11/04 18:12:53;;;;;;;16.82;13.58;;;;;;;8.49;100.00;99823.36;1730815;81;21016;-73
2022/11/04 18:15:22;;;;;;;19.42;13.55;;;;;;;8.45;100.00;99818.70;1720487;82;20937;-72
2022/11/04 21:10:55;;;;;;;23.60;17.87;;;;;;;7.18;100.00;99891.66;1749163;80;46337;-77
2022/11/04 21:13:23;;;;;;;22.00;16.97;;;;;;;7.27;100.00;99888.16;1752377;81;21284;-73
2022/11/04 21:15:54;;;;;;;22.48;17.75;;;;;;;7.40;100.00;99888.81;1752470;81;20902;-72
2022/11/04 21:18:21;;;;;;;36.45;27.45;;;;;;;7.54;100.00;99888.13;1738783;82;20962;-74